<?xml version="1.0" encoding="UTF-8"?>
<gpx xmlns="http://www.topografix.com/GPX/1/1" xmlns:gpsies="http://www.gpsies.com/GPX/1/0" creator="GPSies http://www.gpsies.com - Tour 16) Gro&amp;#223;e Baska-Runde zum Mond" version="1.1" xmlns:xsi="http://www.w3.org/2001/XMLSchema-instance" xsi:schemaLocation="http://www.topografix.com/GPX/1/1 http://www.topografix.com/GPX/1/1/gpx.xsd http://www.gpsies.com/GPX/1/0 http://www.gpsies.com/gpsies.xsd">
  <metadata>
    <name>Tour 16) Große Baska-Runde zum Mond</name>
    <desc>Siehe Buch: (Foto)Wanderungen auf Krk, bod-Verlag, ISBN-Nr.: 978-3-7386-0336-1</desc>
    <author>
      <name>krkwanderer</name>
      <link href="http://www.gpsies.com/mapUser.do?username=krkwanderer">
        <text>krkwanderer on GPSies.com</text>
        <type>GPSiesUserOnWeb</type>
      </link>
    </author>
    <link href="http://www.gpsies.com/map.do?fileId=jkwnymolohrznmci">
      <text>Tour 16) Große Baska-Runde zum Mond on GPSies.com</text>
      <type>trackOnWeb</type>
    </link>
    <time>2016-11-11T17:32:52Z</time>
    <extensions>
      <gpsies:property>round trip</gpsies:property>
      <gpsies:trackLengthMeter>5928.352834985443</gpsies:trackLengthMeter>
      <gpsies:totalAscentMeter>335.0</gpsies:totalAscentMeter>
      <gpsies:totalDescentMeter>335.0</gpsies:totalDescentMeter>
      <gpsies:minHeightMeter>38.0</gpsies:minHeightMeter>
      <gpsies:maxHeightMeter>374.0</gpsies:maxHeightMeter>
    </extensions>
  </metadata>
  <trk>
    <name>Tour 16) Große Baska-Runde zum Mond on GPSies.com</name>
    <link href="http://www.gpsies.com/map.do?fileId=jkwnymolohrznmci">
      <type>trackOnWeb</type>
    </link>
    <link href="http://www.gpsies.com/charts/jk/map/jkwnymolohrznmci_map.png">
      <type>elevationChartUrlMap</type>
    </link>
    <link href="http://www.gpsies.com/charts/jk/mapThumb/jkwnymolohrznmci_mapThumb.png">
      <type>elevationChartUrlMapThumb</type>
    </link>
    <link href="http://www.gpsies.com/charts/jk/tab/jkwnymolohrznmci_tab.png">
      <type>elevationChartUrlTab</type>
    </link>
    <trkseg>
      <trkpt lat="44.97301090" lon="14.75592610">
        <ele>38.000000</ele>
        <time>2010-01-01T00:00:00Z</time>
      </trkpt>
      <trkpt lat="44.97301000" lon="14.75591000">
        <ele>38.000000</ele>
        <time>2010-01-01T00:00:00Z</time>
      </trkpt>
      <trkpt lat="44.97376000" lon="14.75627000">
        <ele>51.000000</ele>
        <time>2010-01-01T00:00:19Z</time>
      </trkpt>
      <trkpt lat="44.97383000" lon="14.75635000">
        <ele>53.000000</ele>
        <time>2010-01-01T00:00:22Z</time>
      </trkpt>
      <trkpt lat="44.97387000" lon="14.75671000">
        <ele>56.000000</ele>
        <time>2010-01-01T00:00:28Z</time>
      </trkpt>
      <trkpt lat="44.97386000" lon="14.75714000">
        <ele>60.000000</ele>
        <time>2010-01-01T00:00:36Z</time>
      </trkpt>
      <trkpt lat="44.97380000" lon="14.75771000">
        <ele>63.000000</ele>
        <time>2010-01-01T00:00:46Z</time>
      </trkpt>
      <trkpt lat="44.97384000" lon="14.75800000">
        <ele>66.000000</ele>
        <time>2010-01-01T00:00:51Z</time>
      </trkpt>
      <trkpt lat="44.97402000" lon="14.75830000">
        <ele>72.000000</ele>
        <time>2010-01-01T00:00:58Z</time>
      </trkpt>
      <trkpt lat="44.97409000" lon="14.75871000">
        <ele>79.000000</ele>
        <time>2010-01-01T00:01:05Z</time>
      </trkpt>
      <trkpt lat="44.97407000" lon="14.75886000">
        <ele>81.000000</ele>
        <time>2010-01-01T00:01:08Z</time>
      </trkpt>
      <trkpt lat="44.97348000" lon="14.75949000">
        <ele>83.000000</ele>
        <time>2010-01-01T00:01:26Z</time>
      </trkpt>
      <trkpt lat="44.97298000" lon="14.76019000">
        <ele>88.000000</ele>
        <time>2010-01-01T00:01:44Z</time>
      </trkpt>
      <trkpt lat="44.97297000" lon="14.76023000">
        <ele>89.000000</ele>
        <time>2010-01-01T00:01:45Z</time>
      </trkpt>
      <trkpt lat="44.97301000" lon="14.76023000">
        <ele>90.000000</ele>
        <time>2010-01-01T00:01:46Z</time>
      </trkpt>
      <trkpt lat="44.97335000" lon="14.76002000">
        <ele>95.000000</ele>
        <time>2010-01-01T00:01:55Z</time>
      </trkpt>
      <trkpt lat="44.97356000" lon="14.75982000">
        <ele>94.000000</ele>
        <time>2010-01-01T00:02:01Z</time>
      </trkpt>
      <trkpt lat="44.97390000" lon="14.75967000">
        <ele>96.000000</ele>
        <time>2010-01-01T00:02:10Z</time>
      </trkpt>
      <trkpt lat="44.97400000" lon="14.75976000">
        <ele>101.00000</ele>
        <time>2010-01-01T00:02:13Z</time>
      </trkpt>
      <trkpt lat="44.97399000" lon="14.75976000">
        <ele>101.00000</ele>
        <time>2010-01-01T00:02:13Z</time>
      </trkpt>
      <trkpt lat="44.97398000" lon="14.75985000">
        <ele>103.00000</ele>
        <time>2010-01-01T00:02:15Z</time>
      </trkpt>
      <trkpt lat="44.97367000" lon="14.76028000">
        <ele>109.00000</ele>
        <time>2010-01-01T00:02:26Z</time>
      </trkpt>
      <trkpt lat="44.97348000" lon="14.76047000">
        <ele>111.00000</ele>
        <time>2010-01-01T00:02:32Z</time>
      </trkpt>
      <trkpt lat="44.97330000" lon="14.76074000">
        <ele>116.00000</ele>
        <time>2010-01-01T00:02:38Z</time>
      </trkpt>
      <trkpt lat="44.97313000" lon="14.76113000">
        <ele>118.00000</ele>
        <time>2010-01-01T00:02:46Z</time>
      </trkpt>
      <trkpt lat="44.97309000" lon="14.76132000">
        <ele>120.00000</ele>
        <time>2010-01-01T00:02:50Z</time>
      </trkpt>
      <trkpt lat="44.97307000" lon="14.76135000">
        <ele>120.00000</ele>
        <time>2010-01-01T00:02:50Z</time>
      </trkpt>
      <trkpt lat="44.97298000" lon="14.76142000">
        <ele>118.00000</ele>
        <time>2010-01-01T00:02:53Z</time>
      </trkpt>
      <trkpt lat="44.97289000" lon="14.76194000">
        <ele>120.00000</ele>
        <time>2010-01-01T00:03:02Z</time>
      </trkpt>
      <trkpt lat="44.97281000" lon="14.76200000">
        <ele>118.00000</ele>
        <time>2010-01-01T00:03:05Z</time>
      </trkpt>
      <trkpt lat="44.97289000" lon="14.76194000">
        <ele>120.00000</ele>
        <time>2010-01-01T00:03:07Z</time>
      </trkpt>
      <trkpt lat="44.97298000" lon="14.76142000">
        <ele>118.00000</ele>
        <time>2010-01-01T00:03:16Z</time>
      </trkpt>
      <trkpt lat="44.97306000" lon="14.76137000">
        <ele>120.00000</ele>
        <time>2010-01-01T00:03:18Z</time>
      </trkpt>
      <trkpt lat="44.97309000" lon="14.76132000">
        <ele>120.00000</ele>
        <time>2010-01-01T00:03:20Z</time>
      </trkpt>
      <trkpt lat="44.97311000" lon="14.76134000">
        <ele>121.00000</ele>
        <time>2010-01-01T00:03:20Z</time>
      </trkpt>
      <trkpt lat="44.97317000" lon="14.76130000">
        <ele>123.00000</ele>
        <time>2010-01-01T00:03:22Z</time>
      </trkpt>
      <trkpt lat="44.97359000" lon="14.76086000">
        <ele>124.00000</ele>
        <time>2010-01-01T00:03:35Z</time>
      </trkpt>
      <trkpt lat="44.97387000" lon="14.76082000">
        <ele>127.00000</ele>
        <time>2010-01-01T00:03:42Z</time>
      </trkpt>
      <trkpt lat="44.97421000" lon="14.76084000">
        <ele>132.00000</ele>
        <time>2010-01-01T00:03:50Z</time>
      </trkpt>
      <trkpt lat="44.97420000" lon="14.76084000">
        <ele>132.00000</ele>
        <time>2010-01-01T00:03:51Z</time>
      </trkpt>
      <trkpt lat="44.97488000" lon="14.76068000">
        <ele>133.00000</ele>
        <time>2010-01-01T00:04:08Z</time>
      </trkpt>
      <trkpt lat="44.97515000" lon="14.76058000">
        <ele>136.00000</ele>
        <time>2010-01-01T00:04:15Z</time>
      </trkpt>
      <trkpt lat="44.97531000" lon="14.76061000">
        <ele>140.00000</ele>
        <time>2010-01-01T00:04:19Z</time>
      </trkpt>
      <trkpt lat="44.97540000" lon="14.76079000">
        <ele>146.00000</ele>
        <time>2010-01-01T00:04:23Z</time>
      </trkpt>
      <trkpt lat="44.97551000" lon="14.76117000">
        <ele>154.00000</ele>
        <time>2010-01-01T00:04:30Z</time>
      </trkpt>
      <trkpt lat="44.97545000" lon="14.76140000">
        <ele>155.00000</ele>
        <time>2010-01-01T00:04:34Z</time>
      </trkpt>
      <trkpt lat="44.97539000" lon="14.76153000">
        <ele>154.00000</ele>
        <time>2010-01-01T00:04:37Z</time>
      </trkpt>
      <trkpt lat="44.97539000" lon="14.76164000">
        <ele>155.00000</ele>
        <time>2010-01-01T00:04:39Z</time>
      </trkpt>
      <trkpt lat="44.97543000" lon="14.76176000">
        <ele>157.00000</ele>
        <time>2010-01-01T00:04:41Z</time>
      </trkpt>
      <trkpt lat="44.97543000" lon="14.76192000">
        <ele>158.00000</ele>
        <time>2010-01-01T00:04:44Z</time>
      </trkpt>
      <trkpt lat="44.97550000" lon="14.76255000">
        <ele>163.00000</ele>
        <time>2010-01-01T00:04:55Z</time>
      </trkpt>
      <trkpt lat="44.97545000" lon="14.76281000">
        <ele>163.00000</ele>
        <time>2010-01-01T00:05:00Z</time>
      </trkpt>
      <trkpt lat="44.97544000" lon="14.76311000">
        <ele>164.00000</ele>
        <time>2010-01-01T00:05:05Z</time>
      </trkpt>
      <trkpt lat="44.97535000" lon="14.76322000">
        <ele>161.00000</ele>
        <time>2010-01-01T00:05:08Z</time>
      </trkpt>
      <trkpt lat="44.97533000" lon="14.76333000">
        <ele>161.00000</ele>
        <time>2010-01-01T00:05:10Z</time>
      </trkpt>
      <trkpt lat="44.97546000" lon="14.76324000">
        <ele>166.00000</ele>
        <time>2010-01-01T00:05:14Z</time>
      </trkpt>
      <trkpt lat="44.97552000" lon="14.76314000">
        <ele>168.00000</ele>
        <time>2010-01-01T00:05:16Z</time>
      </trkpt>
      <trkpt lat="44.97558000" lon="14.76294000">
        <ele>169.00000</ele>
        <time>2010-01-01T00:05:20Z</time>
      </trkpt>
      <trkpt lat="44.97562000" lon="14.76287000">
        <ele>171.00000</ele>
        <time>2010-01-01T00:05:21Z</time>
      </trkpt>
      <trkpt lat="44.97564000" lon="14.76286000">
        <ele>172.00000</ele>
        <time>2010-01-01T00:05:22Z</time>
      </trkpt>
      <trkpt lat="44.97573000" lon="14.76281000">
        <ele>175.00000</ele>
        <time>2010-01-01T00:05:24Z</time>
      </trkpt>
      <trkpt lat="44.97578000" lon="14.76275000">
        <ele>177.00000</ele>
        <time>2010-01-01T00:05:26Z</time>
      </trkpt>
      <trkpt lat="44.97581000" lon="14.76260000">
        <ele>178.00000</ele>
        <time>2010-01-01T00:05:29Z</time>
      </trkpt>
      <trkpt lat="44.97582000" lon="14.76239000">
        <ele>176.00000</ele>
        <time>2010-01-01T00:05:32Z</time>
      </trkpt>
      <trkpt lat="44.97589000" lon="14.76205000">
        <ele>177.00000</ele>
        <time>2010-01-01T00:05:39Z</time>
      </trkpt>
      <trkpt lat="44.97601000" lon="14.76177000">
        <ele>179.00000</ele>
        <time>2010-01-01T00:05:44Z</time>
      </trkpt>
      <trkpt lat="44.97609000" lon="14.76171000">
        <ele>182.00000</ele>
        <time>2010-01-01T00:05:47Z</time>
      </trkpt>
      <trkpt lat="44.97624000" lon="14.76140000">
        <ele>183.00000</ele>
        <time>2010-01-01T00:05:53Z</time>
      </trkpt>
      <trkpt lat="44.97639000" lon="14.76119000">
        <ele>186.00000</ele>
        <time>2010-01-01T00:05:59Z</time>
      </trkpt>
      <trkpt lat="44.97676000" lon="14.76079000">
        <ele>195.00000</ele>
        <time>2010-01-01T00:06:10Z</time>
      </trkpt>
      <trkpt lat="44.97695000" lon="14.76049000">
        <ele>197.00000</ele>
        <time>2010-01-01T00:06:17Z</time>
      </trkpt>
      <trkpt lat="44.97708000" lon="14.76022000">
        <ele>198.00000</ele>
        <time>2010-01-01T00:06:23Z</time>
      </trkpt>
      <trkpt lat="44.97724000" lon="14.75997000">
        <ele>200.00000</ele>
        <time>2010-01-01T00:06:29Z</time>
      </trkpt>
      <trkpt lat="44.97738000" lon="14.75959000">
        <ele>201.00000</ele>
        <time>2010-01-01T00:06:36Z</time>
      </trkpt>
      <trkpt lat="44.97747000" lon="14.75952000">
        <ele>205.00000</ele>
        <time>2010-01-01T00:06:39Z</time>
      </trkpt>
      <trkpt lat="44.97759000" lon="14.75952000">
        <ele>210.00000</ele>
        <time>2010-01-01T00:06:42Z</time>
      </trkpt>
      <trkpt lat="44.97767000" lon="14.75940000">
        <ele>213.00000</ele>
        <time>2010-01-01T00:06:45Z</time>
      </trkpt>
      <trkpt lat="44.97764000" lon="14.75925000">
        <ele>210.00000</ele>
        <time>2010-01-01T00:06:48Z</time>
      </trkpt>
      <trkpt lat="44.97763000" lon="14.75896000">
        <ele>211.00000</ele>
        <time>2010-01-01T00:06:53Z</time>
      </trkpt>
      <trkpt lat="44.97749000" lon="14.75839000">
        <ele>211.00000</ele>
        <time>2010-01-01T00:07:03Z</time>
      </trkpt>
      <trkpt lat="44.97752000" lon="14.75814000">
        <ele>212.00000</ele>
        <time>2010-01-01T00:07:08Z</time>
      </trkpt>
      <trkpt lat="44.97750000" lon="14.75797000">
        <ele>209.00000</ele>
        <time>2010-01-01T00:07:11Z</time>
      </trkpt>
      <trkpt lat="44.97753000" lon="14.75776000">
        <ele>209.00000</ele>
        <time>2010-01-01T00:07:15Z</time>
      </trkpt>
      <trkpt lat="44.97756000" lon="14.75766000">
        <ele>210.00000</ele>
        <time>2010-01-01T00:07:17Z</time>
      </trkpt>
      <trkpt lat="44.97776000" lon="14.75743000">
        <ele>216.00000</ele>
        <time>2010-01-01T00:07:23Z</time>
      </trkpt>
      <trkpt lat="44.97787000" lon="14.75739000">
        <ele>221.00000</ele>
        <time>2010-01-01T00:07:26Z</time>
      </trkpt>
      <trkpt lat="44.97804000" lon="14.75716000">
        <ele>223.00000</ele>
        <time>2010-01-01T00:07:32Z</time>
      </trkpt>
      <trkpt lat="44.97831000" lon="14.75688000">
        <ele>229.00000</ele>
        <time>2010-01-01T00:07:40Z</time>
      </trkpt>
      <trkpt lat="44.97839000" lon="14.75672000">
        <ele>229.00000</ele>
        <time>2010-01-01T00:07:43Z</time>
      </trkpt>
      <trkpt lat="44.97840000" lon="14.75649000">
        <ele>221.00000</ele>
        <time>2010-01-01T00:07:47Z</time>
      </trkpt>
      <trkpt lat="44.97843000" lon="14.75638000">
        <ele>218.00000</ele>
        <time>2010-01-01T00:07:50Z</time>
      </trkpt>
      <trkpt lat="44.97862000" lon="14.75618000">
        <ele>219.00000</ele>
        <time>2010-01-01T00:07:55Z</time>
      </trkpt>
      <trkpt lat="44.97875000" lon="14.75611000">
        <ele>222.00000</ele>
        <time>2010-01-01T00:07:59Z</time>
      </trkpt>
      <trkpt lat="44.97884000" lon="14.75612000">
        <ele>226.00000</ele>
        <time>2010-01-01T00:08:01Z</time>
      </trkpt>
      <trkpt lat="44.97895000" lon="14.75622000">
        <ele>235.00000</ele>
        <time>2010-01-01T00:08:04Z</time>
      </trkpt>
      <trkpt lat="44.97909000" lon="14.75625000">
        <ele>243.00000</ele>
        <time>2010-01-01T00:08:08Z</time>
      </trkpt>
      <trkpt lat="44.97941000" lon="14.75616000">
        <ele>250.00000</ele>
        <time>2010-01-01T00:08:16Z</time>
      </trkpt>
      <trkpt lat="44.97921000" lon="14.75633000">
        <ele>250.00000</ele>
        <time>2010-01-01T00:08:22Z</time>
      </trkpt>
      <trkpt lat="44.97903000" lon="14.75634000">
        <ele>244.00000</ele>
        <time>2010-01-01T00:08:26Z</time>
      </trkpt>
      <trkpt lat="44.97887000" lon="14.75630000">
        <ele>235.00000</ele>
        <time>2010-01-01T00:08:30Z</time>
      </trkpt>
      <trkpt lat="44.97884000" lon="14.75637000">
        <ele>236.00000</ele>
        <time>2010-01-01T00:08:32Z</time>
      </trkpt>
      <trkpt lat="44.97881000" lon="14.75650000">
        <ele>240.00000</ele>
        <time>2010-01-01T00:08:34Z</time>
      </trkpt>
      <trkpt lat="44.97879000" lon="14.75691000">
        <ele>252.00000</ele>
        <time>2010-01-01T00:08:41Z</time>
      </trkpt>
      <trkpt lat="44.97877000" lon="14.75727000">
        <ele>259.00000</ele>
        <time>2010-01-01T00:08:48Z</time>
      </trkpt>
      <trkpt lat="44.97865000" lon="14.75754000">
        <ele>260.00000</ele>
        <time>2010-01-01T00:08:53Z</time>
      </trkpt>
      <trkpt lat="44.97847000" lon="14.75810000">
        <ele>260.00000</ele>
        <time>2010-01-01T00:09:04Z</time>
      </trkpt>
      <trkpt lat="44.97833000" lon="14.75827000">
        <ele>257.00000</ele>
        <time>2010-01-01T00:09:09Z</time>
      </trkpt>
      <trkpt lat="44.97831000" lon="14.75834000">
        <ele>257.00000</ele>
        <time>2010-01-01T00:09:10Z</time>
      </trkpt>
      <trkpt lat="44.97833000" lon="14.75842000">
        <ele>257.00000</ele>
        <time>2010-01-01T00:09:12Z</time>
      </trkpt>
      <trkpt lat="44.97855000" lon="14.75873000">
        <ele>262.00000</ele>
        <time>2010-01-01T00:09:19Z</time>
      </trkpt>
      <trkpt lat="44.97869000" lon="14.75881000">
        <ele>267.00000</ele>
        <time>2010-01-01T00:09:23Z</time>
      </trkpt>
      <trkpt lat="44.97899000" lon="14.75909000">
        <ele>277.00000</ele>
        <time>2010-01-01T00:09:32Z</time>
      </trkpt>
      <trkpt lat="44.97913000" lon="14.75916000">
        <ele>283.00000</ele>
        <time>2010-01-01T00:09:36Z</time>
      </trkpt>
      <trkpt lat="44.97919000" lon="14.75925000">
        <ele>286.00000</ele>
        <time>2010-01-01T00:09:38Z</time>
      </trkpt>
      <trkpt lat="44.97930000" lon="14.75975000">
        <ele>289.00000</ele>
        <time>2010-01-01T00:09:47Z</time>
      </trkpt>
      <trkpt lat="44.97943000" lon="14.76017000">
        <ele>296.00000</ele>
        <time>2010-01-01T00:09:55Z</time>
      </trkpt>
      <trkpt lat="44.97949000" lon="14.76058000">
        <ele>303.00000</ele>
        <time>2010-01-01T00:10:03Z</time>
      </trkpt>
      <trkpt lat="44.97945000" lon="14.76073000">
        <ele>303.00000</ele>
        <time>2010-01-01T00:10:05Z</time>
      </trkpt>
      <trkpt lat="44.97935000" lon="14.76090000">
        <ele>302.00000</ele>
        <time>2010-01-01T00:10:09Z</time>
      </trkpt>
      <trkpt lat="44.97928000" lon="14.76096000">
        <ele>301.00000</ele>
        <time>2010-01-01T00:10:11Z</time>
      </trkpt>
      <trkpt lat="44.97907000" lon="14.76105000">
        <ele>295.00000</ele>
        <time>2010-01-01T00:10:17Z</time>
      </trkpt>
      <trkpt lat="44.97893000" lon="14.76105000">
        <ele>290.00000</ele>
        <time>2010-01-01T00:10:20Z</time>
      </trkpt>
      <trkpt lat="44.97888000" lon="14.76112000">
        <ele>289.00000</ele>
        <time>2010-01-01T00:10:22Z</time>
      </trkpt>
      <trkpt lat="44.97886000" lon="14.76128000">
        <ele>291.00000</ele>
        <time>2010-01-01T00:10:25Z</time>
      </trkpt>
      <trkpt lat="44.97886000" lon="14.76173000">
        <ele>298.00000</ele>
        <time>2010-01-01T00:10:33Z</time>
      </trkpt>
      <trkpt lat="44.97879000" lon="14.76207000">
        <ele>298.00000</ele>
        <time>2010-01-01T00:10:39Z</time>
      </trkpt>
      <trkpt lat="44.97879000" lon="14.76228000">
        <ele>300.00000</ele>
        <time>2010-01-01T00:10:43Z</time>
      </trkpt>
      <trkpt lat="44.97893000" lon="14.76210000">
        <ele>304.00000</ele>
        <time>2010-01-01T00:10:47Z</time>
      </trkpt>
      <trkpt lat="44.97908000" lon="14.76205000">
        <ele>310.00000</ele>
        <time>2010-01-01T00:10:51Z</time>
      </trkpt>
      <trkpt lat="44.97928000" lon="14.76149000">
        <ele>311.00000</ele>
        <time>2010-01-01T00:11:02Z</time>
      </trkpt>
      <trkpt lat="44.97963000" lon="14.76134000">
        <ele>319.00000</ele>
        <time>2010-01-01T00:11:11Z</time>
      </trkpt>
      <trkpt lat="44.97978000" lon="14.76116000">
        <ele>321.00000</ele>
        <time>2010-01-01T00:11:16Z</time>
      </trkpt>
      <trkpt lat="44.97988000" lon="14.76111000">
        <ele>324.00000</ele>
        <time>2010-01-01T00:11:19Z</time>
      </trkpt>
      <trkpt lat="44.97993000" lon="14.76100000">
        <ele>324.00000</ele>
        <time>2010-01-01T00:11:21Z</time>
      </trkpt>
      <trkpt lat="44.97991000" lon="14.76080000">
        <ele>321.00000</ele>
        <time>2010-01-01T00:11:25Z</time>
      </trkpt>
      <trkpt lat="44.97999000" lon="14.76054000">
        <ele>322.00000</ele>
        <time>2010-01-01T00:11:30Z</time>
      </trkpt>
      <trkpt lat="44.98007000" lon="14.76051000">
        <ele>324.00000</ele>
        <time>2010-01-01T00:11:32Z</time>
      </trkpt>
      <trkpt lat="44.98013000" lon="14.76054000">
        <ele>327.00000</ele>
        <time>2010-01-01T00:11:33Z</time>
      </trkpt>
      <trkpt lat="44.98022000" lon="14.76050000">
        <ele>329.00000</ele>
        <time>2010-01-01T00:11:36Z</time>
      </trkpt>
      <trkpt lat="44.98029000" lon="14.76029000">
        <ele>330.00000</ele>
        <time>2010-01-01T00:11:40Z</time>
      </trkpt>
      <trkpt lat="44.98027000" lon="14.76007000">
        <ele>328.00000</ele>
        <time>2010-01-01T00:11:44Z</time>
      </trkpt>
      <trkpt lat="44.98040000" lon="14.75980000">
        <ele>333.00000</ele>
        <time>2010-01-01T00:11:50Z</time>
      </trkpt>
      <trkpt lat="44.98048000" lon="14.75952000">
        <ele>335.00000</ele>
        <time>2010-01-01T00:11:55Z</time>
      </trkpt>
      <trkpt lat="44.98061000" lon="14.75977000">
        <ele>340.00000</ele>
        <time>2010-01-01T00:12:00Z</time>
      </trkpt>
      <trkpt lat="44.98066000" lon="14.75995000">
        <ele>342.00000</ele>
        <time>2010-01-01T00:12:04Z</time>
      </trkpt>
      <trkpt lat="44.98075000" lon="14.76007000">
        <ele>346.00000</ele>
        <time>2010-01-01T00:12:07Z</time>
      </trkpt>
      <trkpt lat="44.98098000" lon="14.76057000">
        <ele>351.00000</ele>
        <time>2010-01-01T00:12:17Z</time>
      </trkpt>
      <trkpt lat="44.98102000" lon="14.76073000">
        <ele>351.00000</ele>
        <time>2010-01-01T00:12:20Z</time>
      </trkpt>
      <trkpt lat="44.98110000" lon="14.76089000">
        <ele>352.00000</ele>
        <time>2010-01-01T00:12:24Z</time>
      </trkpt>
      <trkpt lat="44.98113000" lon="14.76107000">
        <ele>353.00000</ele>
        <time>2010-01-01T00:12:27Z</time>
      </trkpt>
      <trkpt lat="44.98120000" lon="14.76116000">
        <ele>354.00000</ele>
        <time>2010-01-01T00:12:29Z</time>
      </trkpt>
      <trkpt lat="44.98123000" lon="14.76123000">
        <ele>355.00000</ele>
        <time>2010-01-01T00:12:31Z</time>
      </trkpt>
      <trkpt lat="44.98138000" lon="14.76130000">
        <ele>357.00000</ele>
        <time>2010-01-01T00:12:35Z</time>
      </trkpt>
      <trkpt lat="44.98147000" lon="14.76142000">
        <ele>358.00000</ele>
        <time>2010-01-01T00:12:38Z</time>
      </trkpt>
      <trkpt lat="44.98152000" lon="14.76156000">
        <ele>358.00000</ele>
        <time>2010-01-01T00:12:41Z</time>
      </trkpt>
      <trkpt lat="44.98153000" lon="14.76178000">
        <ele>358.00000</ele>
        <time>2010-01-01T00:12:44Z</time>
      </trkpt>
      <trkpt lat="44.98165000" lon="14.76201000">
        <ele>360.00000</ele>
        <time>2010-01-01T00:12:49Z</time>
      </trkpt>
      <trkpt lat="44.98175000" lon="14.76238000">
        <ele>360.00000</ele>
        <time>2010-01-01T00:12:56Z</time>
      </trkpt>
      <trkpt lat="44.98175000" lon="14.76237000">
        <ele>360.00000</ele>
        <time>2010-01-01T00:12:57Z</time>
      </trkpt>
      <trkpt lat="44.98176000" lon="14.76243000">
        <ele>360.00000</ele>
        <time>2010-01-01T00:12:58Z</time>
      </trkpt>
      <trkpt lat="44.98189000" lon="14.76254000">
        <ele>361.00000</ele>
        <time>2010-01-01T00:13:01Z</time>
      </trkpt>
      <trkpt lat="44.98197000" lon="14.76258000">
        <ele>362.00000</ele>
        <time>2010-01-01T00:13:04Z</time>
      </trkpt>
      <trkpt lat="44.98202000" lon="14.76258000">
        <ele>362.00000</ele>
        <time>2010-01-01T00:13:05Z</time>
      </trkpt>
      <trkpt lat="44.98205000" lon="14.76254000">
        <ele>362.00000</ele>
        <time>2010-01-01T00:13:06Z</time>
      </trkpt>
      <trkpt lat="44.98214000" lon="14.76250000">
        <ele>362.00000</ele>
        <time>2010-01-01T00:13:08Z</time>
      </trkpt>
      <trkpt lat="44.98234000" lon="14.76245000">
        <ele>363.00000</ele>
        <time>2010-01-01T00:13:13Z</time>
      </trkpt>
      <trkpt lat="44.98241000" lon="14.76236000">
        <ele>364.00000</ele>
        <time>2010-01-01T00:13:16Z</time>
      </trkpt>
      <trkpt lat="44.98249000" lon="14.76231000">
        <ele>365.00000</ele>
        <time>2010-01-01T00:13:18Z</time>
      </trkpt>
      <trkpt lat="44.98256000" lon="14.76233000">
        <ele>365.00000</ele>
        <time>2010-01-01T00:13:20Z</time>
      </trkpt>
      <trkpt lat="44.98274000" lon="14.76243000">
        <ele>365.00000</ele>
        <time>2010-01-01T00:13:24Z</time>
      </trkpt>
      <trkpt lat="44.98293000" lon="14.76249000">
        <ele>366.00000</ele>
        <time>2010-01-01T00:13:29Z</time>
      </trkpt>
      <trkpt lat="44.98307000" lon="14.76248000">
        <ele>366.00000</ele>
        <time>2010-01-01T00:13:33Z</time>
      </trkpt>
      <trkpt lat="44.98312000" lon="14.76242000">
        <ele>366.00000</ele>
        <time>2010-01-01T00:13:34Z</time>
      </trkpt>
      <trkpt lat="44.98316000" lon="14.76242000">
        <ele>367.00000</ele>
        <time>2010-01-01T00:13:35Z</time>
      </trkpt>
      <trkpt lat="44.98325000" lon="14.76236000">
        <ele>367.00000</ele>
        <time>2010-01-01T00:13:38Z</time>
      </trkpt>
      <trkpt lat="44.98338000" lon="14.76215000">
        <ele>368.00000</ele>
        <time>2010-01-01T00:13:43Z</time>
      </trkpt>
      <trkpt lat="44.98345000" lon="14.76202000">
        <ele>368.00000</ele>
        <time>2010-01-01T00:13:46Z</time>
      </trkpt>
      <trkpt lat="44.98346000" lon="14.76186000">
        <ele>368.00000</ele>
        <time>2010-01-01T00:13:48Z</time>
      </trkpt>
      <trkpt lat="44.98372000" lon="14.76127000">
        <ele>370.00000</ele>
        <time>2010-01-01T00:14:01Z</time>
      </trkpt>
      <trkpt lat="44.98376000" lon="14.76122000">
        <ele>370.00000</ele>
        <time>2010-01-01T00:14:02Z</time>
      </trkpt>
      <trkpt lat="44.98386000" lon="14.76103000">
        <ele>371.00000</ele>
        <time>2010-01-01T00:14:06Z</time>
      </trkpt>
      <trkpt lat="44.98389000" lon="14.76100000">
        <ele>371.00000</ele>
        <time>2010-01-01T00:14:07Z</time>
      </trkpt>
      <trkpt lat="44.98390000" lon="14.76102000">
        <ele>371.00000</ele>
        <time>2010-01-01T00:14:07Z</time>
      </trkpt>
      <trkpt lat="44.98390000" lon="14.76101000">
        <ele>371.00000</ele>
        <time>2010-01-01T00:14:08Z</time>
      </trkpt>
      <trkpt lat="44.98376000" lon="14.76071000">
        <ele>373.00000</ele>
        <time>2010-01-01T00:14:14Z</time>
      </trkpt>
      <trkpt lat="44.98336000" lon="14.75995000">
        <ele>374.00000</ele>
        <time>2010-01-01T00:14:31Z</time>
      </trkpt>
      <trkpt lat="44.98332000" lon="14.75990000">
        <ele>374.00000</ele>
        <time>2010-01-01T00:14:32Z</time>
      </trkpt>
      <trkpt lat="44.98327000" lon="14.75971000">
        <ele>374.00000</ele>
        <time>2010-01-01T00:14:36Z</time>
      </trkpt>
      <trkpt lat="44.98327000" lon="14.75955000">
        <ele>374.00000</ele>
        <time>2010-01-01T00:14:38Z</time>
      </trkpt>
      <trkpt lat="44.98323000" lon="14.75942000">
        <ele>373.00000</ele>
        <time>2010-01-01T00:14:41Z</time>
      </trkpt>
      <trkpt lat="44.98312000" lon="14.75935000">
        <ele>373.00000</ele>
        <time>2010-01-01T00:14:44Z</time>
      </trkpt>
      <trkpt lat="44.98306000" lon="14.75922000">
        <ele>372.00000</ele>
        <time>2010-01-01T00:14:47Z</time>
      </trkpt>
      <trkpt lat="44.98297000" lon="14.75893000">
        <ele>371.00000</ele>
        <time>2010-01-01T00:14:52Z</time>
      </trkpt>
      <trkpt lat="44.98299000" lon="14.75883000">
        <ele>371.00000</ele>
        <time>2010-01-01T00:14:54Z</time>
      </trkpt>
      <trkpt lat="44.98297000" lon="14.75879000">
        <ele>371.00000</ele>
        <time>2010-01-01T00:14:55Z</time>
      </trkpt>
      <trkpt lat="44.98286000" lon="14.75870000">
        <ele>369.00000</ele>
        <time>2010-01-01T00:14:58Z</time>
      </trkpt>
      <trkpt lat="44.98278000" lon="14.75858000">
        <ele>368.00000</ele>
        <time>2010-01-01T00:15:01Z</time>
      </trkpt>
      <trkpt lat="44.98261000" lon="14.75841000">
        <ele>365.00000</ele>
        <time>2010-01-01T00:15:06Z</time>
      </trkpt>
      <trkpt lat="44.98253000" lon="14.75828000">
        <ele>363.00000</ele>
        <time>2010-01-01T00:15:09Z</time>
      </trkpt>
      <trkpt lat="44.98234000" lon="14.75809000">
        <ele>358.00000</ele>
        <time>2010-01-01T00:15:15Z</time>
      </trkpt>
      <trkpt lat="44.98225000" lon="14.75809000">
        <ele>357.00000</ele>
        <time>2010-01-01T00:15:17Z</time>
      </trkpt>
      <trkpt lat="44.98222000" lon="14.75806000">
        <ele>356.00000</ele>
        <time>2010-01-01T00:15:18Z</time>
      </trkpt>
      <trkpt lat="44.98220000" lon="14.75801000">
        <ele>355.00000</ele>
        <time>2010-01-01T00:15:19Z</time>
      </trkpt>
      <trkpt lat="44.98205000" lon="14.75785000">
        <ele>350.00000</ele>
        <time>2010-01-01T00:15:24Z</time>
      </trkpt>
      <trkpt lat="44.98198000" lon="14.75781000">
        <ele>349.00000</ele>
        <time>2010-01-01T00:15:26Z</time>
      </trkpt>
      <trkpt lat="44.98194000" lon="14.75782000">
        <ele>348.00000</ele>
        <time>2010-01-01T00:15:27Z</time>
      </trkpt>
      <trkpt lat="44.98191000" lon="14.75786000">
        <ele>348.00000</ele>
        <time>2010-01-01T00:15:28Z</time>
      </trkpt>
      <trkpt lat="44.98186000" lon="14.75794000">
        <ele>348.00000</ele>
        <time>2010-01-01T00:15:30Z</time>
      </trkpt>
      <trkpt lat="44.98168000" lon="14.75800000">
        <ele>345.00000</ele>
        <time>2010-01-01T00:15:34Z</time>
      </trkpt>
      <trkpt lat="44.98161000" lon="14.75809000">
        <ele>344.00000</ele>
        <time>2010-01-01T00:15:36Z</time>
      </trkpt>
      <trkpt lat="44.98150000" lon="14.75804000">
        <ele>341.00000</ele>
        <time>2010-01-01T00:15:39Z</time>
      </trkpt>
      <trkpt lat="44.98146000" lon="14.75799000">
        <ele>339.00000</ele>
        <time>2010-01-01T00:15:41Z</time>
      </trkpt>
      <trkpt lat="44.98136000" lon="14.75794000">
        <ele>336.00000</ele>
        <time>2010-01-01T00:15:43Z</time>
      </trkpt>
      <trkpt lat="44.98126000" lon="14.75798000">
        <ele>334.00000</ele>
        <time>2010-01-01T00:15:46Z</time>
      </trkpt>
      <trkpt lat="44.98123000" lon="14.75797000">
        <ele>333.00000</ele>
        <time>2010-01-01T00:15:47Z</time>
      </trkpt>
      <trkpt lat="44.98123000" lon="14.75784000">
        <ele>331.00000</ele>
        <time>2010-01-01T00:15:49Z</time>
      </trkpt>
      <trkpt lat="44.98115000" lon="14.75762000">
        <ele>324.00000</ele>
        <time>2010-01-01T00:15:53Z</time>
      </trkpt>
      <trkpt lat="44.98111000" lon="14.75754000">
        <ele>321.00000</ele>
        <time>2010-01-01T00:15:55Z</time>
      </trkpt>
      <trkpt lat="44.98108000" lon="14.75756000">
        <ele>320.00000</ele>
        <time>2010-01-01T00:15:56Z</time>
      </trkpt>
      <trkpt lat="44.98105000" lon="14.75752000">
        <ele>318.00000</ele>
        <time>2010-01-01T00:15:57Z</time>
      </trkpt>
      <trkpt lat="44.98106000" lon="14.75744000">
        <ele>318.00000</ele>
        <time>2010-01-01T00:15:58Z</time>
      </trkpt>
      <trkpt lat="44.98104000" lon="14.75738000">
        <ele>316.00000</ele>
        <time>2010-01-01T00:15:59Z</time>
      </trkpt>
      <trkpt lat="44.98106000" lon="14.75725000">
        <ele>315.00000</ele>
        <time>2010-01-01T00:16:02Z</time>
      </trkpt>
      <trkpt lat="44.98100000" lon="14.75725000">
        <ele>313.00000</ele>
        <time>2010-01-01T00:16:03Z</time>
      </trkpt>
      <trkpt lat="44.98084000" lon="14.75729000">
        <ele>308.00000</ele>
        <time>2010-01-01T00:16:07Z</time>
      </trkpt>
      <trkpt lat="44.98079000" lon="14.75725000">
        <ele>307.00000</ele>
        <time>2010-01-01T00:16:09Z</time>
      </trkpt>
      <trkpt lat="44.98077000" lon="14.75716000">
        <ele>305.00000</ele>
        <time>2010-01-01T00:16:10Z</time>
      </trkpt>
      <trkpt lat="44.98074000" lon="14.75717000">
        <ele>305.00000</ele>
        <time>2010-01-01T00:16:11Z</time>
      </trkpt>
      <trkpt lat="44.98070000" lon="14.75713000">
        <ele>304.00000</ele>
        <time>2010-01-01T00:16:12Z</time>
      </trkpt>
      <trkpt lat="44.98069000" lon="14.75704000">
        <ele>302.00000</ele>
        <time>2010-01-01T00:16:14Z</time>
      </trkpt>
      <trkpt lat="44.98062000" lon="14.75699000">
        <ele>300.00000</ele>
        <time>2010-01-01T00:16:16Z</time>
      </trkpt>
      <trkpt lat="44.98062000" lon="14.75692000">
        <ele>299.00000</ele>
        <time>2010-01-01T00:16:17Z</time>
      </trkpt>
      <trkpt lat="44.98059000" lon="14.75682000">
        <ele>296.00000</ele>
        <time>2010-01-01T00:16:19Z</time>
      </trkpt>
      <trkpt lat="44.98054000" lon="14.75679000">
        <ele>295.00000</ele>
        <time>2010-01-01T00:16:20Z</time>
      </trkpt>
      <trkpt lat="44.98050000" lon="14.75668000">
        <ele>291.00000</ele>
        <time>2010-01-01T00:16:23Z</time>
      </trkpt>
      <trkpt lat="44.98047000" lon="14.75665000">
        <ele>290.00000</ele>
        <time>2010-01-01T00:16:24Z</time>
      </trkpt>
      <trkpt lat="44.98045000" lon="14.75670000">
        <ele>291.00000</ele>
        <time>2010-01-01T00:16:25Z</time>
      </trkpt>
      <trkpt lat="44.98038000" lon="14.75666000">
        <ele>288.00000</ele>
        <time>2010-01-01T00:16:26Z</time>
      </trkpt>
      <trkpt lat="44.98034000" lon="14.75660000">
        <ele>286.00000</ele>
        <time>2010-01-01T00:16:28Z</time>
      </trkpt>
      <trkpt lat="44.98006000" lon="14.75631000">
        <ele>275.00000</ele>
        <time>2010-01-01T00:16:37Z</time>
      </trkpt>
      <trkpt lat="44.98002000" lon="14.75623000">
        <ele>272.00000</ele>
        <time>2010-01-01T00:16:38Z</time>
      </trkpt>
      <trkpt lat="44.97993000" lon="14.75620000">
        <ele>268.00000</ele>
        <time>2010-01-01T00:16:41Z</time>
      </trkpt>
      <trkpt lat="44.97987000" lon="14.75606000">
        <ele>264.00000</ele>
        <time>2010-01-01T00:16:43Z</time>
      </trkpt>
      <trkpt lat="44.97979000" lon="14.75597000">
        <ele>259.00000</ele>
        <time>2010-01-01T00:16:46Z</time>
      </trkpt>
      <trkpt lat="44.97977000" lon="14.75600000">
        <ele>259.00000</ele>
        <time>2010-01-01T00:16:47Z</time>
      </trkpt>
      <trkpt lat="44.97975000" lon="14.75598000">
        <ele>258.00000</ele>
        <time>2010-01-01T00:16:47Z</time>
      </trkpt>
      <trkpt lat="44.97967000" lon="14.75567000">
        <ele>249.00000</ele>
        <time>2010-01-01T00:16:53Z</time>
      </trkpt>
      <trkpt lat="44.97960000" lon="14.75555000">
        <ele>244.00000</ele>
        <time>2010-01-01T00:16:56Z</time>
      </trkpt>
      <trkpt lat="44.97960000" lon="14.75554000">
        <ele>244.00000</ele>
        <time>2010-01-01T00:16:56Z</time>
      </trkpt>
      <trkpt lat="44.97958000" lon="14.75552000">
        <ele>243.00000</ele>
        <time>2010-01-01T00:16:57Z</time>
      </trkpt>
      <trkpt lat="44.97961000" lon="14.75540000">
        <ele>242.00000</ele>
        <time>2010-01-01T00:16:59Z</time>
      </trkpt>
      <trkpt lat="44.97959000" lon="14.75531000">
        <ele>240.00000</ele>
        <time>2010-01-01T00:17:01Z</time>
      </trkpt>
      <trkpt lat="44.97959000" lon="14.75514000">
        <ele>238.00000</ele>
        <time>2010-01-01T00:17:04Z</time>
      </trkpt>
      <trkpt lat="44.97943000" lon="14.75477000">
        <ele>224.00000</ele>
        <time>2010-01-01T00:17:11Z</time>
      </trkpt>
      <trkpt lat="44.97943000" lon="14.75469000">
        <ele>224.00000</ele>
        <time>2010-01-01T00:17:13Z</time>
      </trkpt>
      <trkpt lat="44.97923000" lon="14.75450000">
        <ele>209.00000</ele>
        <time>2010-01-01T00:17:19Z</time>
      </trkpt>
      <trkpt lat="44.97908000" lon="14.75441000">
        <ele>199.00000</ele>
        <time>2010-01-01T00:17:23Z</time>
      </trkpt>
      <trkpt lat="44.97908000" lon="14.75440000">
        <ele>199.00000</ele>
        <time>2010-01-01T00:17:23Z</time>
      </trkpt>
      <trkpt lat="44.97910000" lon="14.75434000">
        <ele>200.00000</ele>
        <time>2010-01-01T00:17:24Z</time>
      </trkpt>
      <trkpt lat="44.97923000" lon="14.75425000">
        <ele>206.00000</ele>
        <time>2010-01-01T00:17:28Z</time>
      </trkpt>
      <trkpt lat="44.97929000" lon="14.75410000">
        <ele>208.00000</ele>
        <time>2010-01-01T00:17:31Z</time>
      </trkpt>
      <trkpt lat="44.97930000" lon="14.75390000">
        <ele>206.00000</ele>
        <time>2010-01-01T00:17:34Z</time>
      </trkpt>
      <trkpt lat="44.97928000" lon="14.75387000">
        <ele>204.00000</ele>
        <time>2010-01-01T00:17:35Z</time>
      </trkpt>
      <trkpt lat="44.97925000" lon="14.75389000">
        <ele>203.00000</ele>
        <time>2010-01-01T00:17:36Z</time>
      </trkpt>
      <trkpt lat="44.97920000" lon="14.75400000">
        <ele>201.00000</ele>
        <time>2010-01-01T00:17:38Z</time>
      </trkpt>
      <trkpt lat="44.97916000" lon="14.75402000">
        <ele>199.00000</ele>
        <time>2010-01-01T00:17:39Z</time>
      </trkpt>
      <trkpt lat="44.97913000" lon="14.75397000">
        <ele>196.00000</ele>
        <time>2010-01-01T00:17:40Z</time>
      </trkpt>
      <trkpt lat="44.97913000" lon="14.75390000">
        <ele>196.00000</ele>
        <time>2010-01-01T00:17:41Z</time>
      </trkpt>
      <trkpt lat="44.97909000" lon="14.75385000">
        <ele>193.00000</ele>
        <time>2010-01-01T00:17:43Z</time>
      </trkpt>
      <trkpt lat="44.97913000" lon="14.75361000">
        <ele>192.00000</ele>
        <time>2010-01-01T00:17:47Z</time>
      </trkpt>
      <trkpt lat="44.97913000" lon="14.75349000">
        <ele>190.00000</ele>
        <time>2010-01-01T00:17:49Z</time>
      </trkpt>
      <trkpt lat="44.97912000" lon="14.75344000">
        <ele>189.00000</ele>
        <time>2010-01-01T00:17:50Z</time>
      </trkpt>
      <trkpt lat="44.97897000" lon="14.75316000">
        <ele>179.00000</ele>
        <time>2010-01-01T00:17:56Z</time>
      </trkpt>
      <trkpt lat="44.97890000" lon="14.75313000">
        <ele>176.00000</ele>
        <time>2010-01-01T00:17:58Z</time>
      </trkpt>
      <trkpt lat="44.97883000" lon="14.75295000">
        <ele>171.00000</ele>
        <time>2010-01-01T00:18:02Z</time>
      </trkpt>
      <trkpt lat="44.97871000" lon="14.75285000">
        <ele>166.00000</ele>
        <time>2010-01-01T00:18:05Z</time>
      </trkpt>
      <trkpt lat="44.97868000" lon="14.75286000">
        <ele>165.00000</ele>
        <time>2010-01-01T00:18:06Z</time>
      </trkpt>
      <trkpt lat="44.97858000" lon="14.75297000">
        <ele>161.00000</ele>
        <time>2010-01-01T00:18:09Z</time>
      </trkpt>
      <trkpt lat="44.97844000" lon="14.75296000">
        <ele>155.00000</ele>
        <time>2010-01-01T00:18:13Z</time>
      </trkpt>
      <trkpt lat="44.97829000" lon="14.75289000">
        <ele>150.00000</ele>
        <time>2010-01-01T00:18:17Z</time>
      </trkpt>
      <trkpt lat="44.97828000" lon="14.75289000">
        <ele>150.00000</ele>
        <time>2010-01-01T00:18:17Z</time>
      </trkpt>
      <trkpt lat="44.97820000" lon="14.75298000">
        <ele>148.00000</ele>
        <time>2010-01-01T00:18:19Z</time>
      </trkpt>
      <trkpt lat="44.97817000" lon="14.75298000">
        <ele>147.00000</ele>
        <time>2010-01-01T00:18:20Z</time>
      </trkpt>
      <trkpt lat="44.97815000" lon="14.75291000">
        <ele>147.00000</ele>
        <time>2010-01-01T00:18:21Z</time>
      </trkpt>
      <trkpt lat="44.97818000" lon="14.75276000">
        <ele>148.00000</ele>
        <time>2010-01-01T00:18:24Z</time>
      </trkpt>
      <trkpt lat="44.97818000" lon="14.75265000">
        <ele>149.00000</ele>
        <time>2010-01-01T00:18:26Z</time>
      </trkpt>
      <trkpt lat="44.97817000" lon="14.75258000">
        <ele>149.00000</ele>
        <time>2010-01-01T00:18:27Z</time>
      </trkpt>
      <trkpt lat="44.97812000" lon="14.75255000">
        <ele>148.00000</ele>
        <time>2010-01-01T00:18:29Z</time>
      </trkpt>
      <trkpt lat="44.97809000" lon="14.75261000">
        <ele>147.00000</ele>
        <time>2010-01-01T00:18:30Z</time>
      </trkpt>
      <trkpt lat="44.97808000" lon="14.75272000">
        <ele>147.00000</ele>
        <time>2010-01-01T00:18:32Z</time>
      </trkpt>
      <trkpt lat="44.97800000" lon="14.75286000">
        <ele>144.00000</ele>
        <time>2010-01-01T00:18:35Z</time>
      </trkpt>
      <trkpt lat="44.97786000" lon="14.75311000">
        <ele>139.00000</ele>
        <time>2010-01-01T00:18:41Z</time>
      </trkpt>
      <trkpt lat="44.97785000" lon="14.75324000">
        <ele>137.00000</ele>
        <time>2010-01-01T00:18:43Z</time>
      </trkpt>
      <trkpt lat="44.97788000" lon="14.75352000">
        <ele>137.00000</ele>
        <time>2010-01-01T00:18:48Z</time>
      </trkpt>
      <trkpt lat="44.97784000" lon="14.75396000">
        <ele>137.00000</ele>
        <time>2010-01-01T00:18:56Z</time>
      </trkpt>
      <trkpt lat="44.97756000" lon="14.75428000">
        <ele>129.00000</ele>
        <time>2010-01-01T00:19:05Z</time>
      </trkpt>
      <trkpt lat="44.97741000" lon="14.75459000">
        <ele>129.00000</ele>
        <time>2010-01-01T00:19:11Z</time>
      </trkpt>
      <trkpt lat="44.97720000" lon="14.75488000">
        <ele>126.00000</ele>
        <time>2010-01-01T00:19:19Z</time>
      </trkpt>
      <trkpt lat="44.97690000" lon="14.75513000">
        <ele>121.00000</ele>
        <time>2010-01-01T00:19:27Z</time>
      </trkpt>
      <trkpt lat="44.97665000" lon="14.75541000">
        <ele>119.00000</ele>
        <time>2010-01-01T00:19:35Z</time>
      </trkpt>
      <trkpt lat="44.97633000" lon="14.75564000">
        <ele>114.00000</ele>
        <time>2010-01-01T00:19:44Z</time>
      </trkpt>
      <trkpt lat="44.97618000" lon="14.75571000">
        <ele>111.00000</ele>
        <time>2010-01-01T00:19:48Z</time>
      </trkpt>
      <trkpt lat="44.97592000" lon="14.75583000">
        <ele>106.00000</ele>
        <time>2010-01-01T00:19:55Z</time>
      </trkpt>
      <trkpt lat="44.97575000" lon="14.75597000">
        <ele>104.00000</ele>
        <time>2010-01-01T00:20:00Z</time>
      </trkpt>
      <trkpt lat="44.97542000" lon="14.75632000">
        <ele>100.00000</ele>
        <time>2010-01-01T00:20:10Z</time>
      </trkpt>
      <trkpt lat="44.97507000" lon="14.75682000">
        <ele>95.000000</ele>
        <time>2010-01-01T00:20:23Z</time>
      </trkpt>
      <trkpt lat="44.97497000" lon="14.75698000">
        <ele>93.000000</ele>
        <time>2010-01-01T00:20:26Z</time>
      </trkpt>
      <trkpt lat="44.97473000" lon="14.75753000">
        <ele>91.000000</ele>
        <time>2010-01-01T00:20:38Z</time>
      </trkpt>
      <trkpt lat="44.97458000" lon="14.75776000">
        <ele>87.000000</ele>
        <time>2010-01-01T00:20:43Z</time>
      </trkpt>
      <trkpt lat="44.97437000" lon="14.75823000">
        <ele>82.000000</ele>
        <time>2010-01-01T00:20:53Z</time>
      </trkpt>
      <trkpt lat="44.97422000" lon="14.75844000">
        <ele>78.000000</ele>
        <time>2010-01-01T00:20:58Z</time>
      </trkpt>
      <trkpt lat="44.97410000" lon="14.75857000">
        <ele>77.000000</ele>
        <time>2010-01-01T00:21:02Z</time>
      </trkpt>
      <trkpt lat="44.97410000" lon="14.75858000">
        <ele>77.000000</ele>
        <time>2010-01-01T00:21:02Z</time>
      </trkpt>
      <trkpt lat="44.97407000" lon="14.75858000">
        <ele>77.000000</ele>
        <time>2010-01-01T00:21:03Z</time>
      </trkpt>
      <trkpt lat="44.97402000" lon="14.75830000">
        <ele>72.000000</ele>
        <time>2010-01-01T00:21:08Z</time>
      </trkpt>
      <trkpt lat="44.97384000" lon="14.75800000">
        <ele>66.000000</ele>
        <time>2010-01-01T00:21:15Z</time>
      </trkpt>
      <trkpt lat="44.97380000" lon="14.75771000">
        <ele>63.000000</ele>
        <time>2010-01-01T00:21:20Z</time>
      </trkpt>
      <trkpt lat="44.97386000" lon="14.75714000">
        <ele>60.000000</ele>
        <time>2010-01-01T00:21:30Z</time>
      </trkpt>
      <trkpt lat="44.97387000" lon="14.75671000">
        <ele>56.000000</ele>
        <time>2010-01-01T00:21:38Z</time>
      </trkpt>
      <trkpt lat="44.97383000" lon="14.75635000">
        <ele>53.000000</ele>
        <time>2010-01-01T00:21:44Z</time>
      </trkpt>
      <trkpt lat="44.97376000" lon="14.75627000">
        <ele>51.000000</ele>
        <time>2010-01-01T00:21:46Z</time>
      </trkpt>
      <trkpt lat="44.97302000" lon="14.75591000">
        <ele>38.000000</ele>
        <time>2010-01-01T00:22:06Z</time>
      </trkpt>
    </trkseg>
  </trk>
</gpx>

